sensor_id;sensor_type;location;lat;lon;timestamp;P1;durP1;ratioP1;P2;durP2;ratioP2
37407;SDS011;24866;50.248;8.252;2022-08-21T00:01:25;7.93;;;3.85;;
37407;SDS011;24866;50.248;8.252;2022-08-21T00:04:03;10.38;;;4.57;;
37407;SDS011;24866;50.248;8.252;2022-08-21T00:06:34;9.45;;;4.03;;
37407;SDS011;24866;50.248;8.252;2022-08-21T00:09:05;5.47;;;3.80;;
37407;SDS011;24866;50.248;8.252;2022-08-21T00:11:36;7.27;;;3.50;;
37407;SDS011;24866;50.248;8.252;2022-08-21T00:14:08;6.80;;;3.90;;
37407;SDS011;24866;50.248;8.252;2022-08-21T00:16:38;8.10;;;4.30;;
37407;SDS011;24866;50.248;8.252;2022-08-21T00:19:10;5.82;;;3.08;;
37407;SDS011;24866;50.248;8.252;2022-08-21T00:21:40;6.97;;;3.67;;
37407;SDS011;24866;50.248;8.252;2022-08-21T00:24:10;9.02;;;3.90;;
37407;SDS011;24866;50.248;8.252;2022-08-21T00:26:40;6.65;;;4.07;;
37407;SDS011;24866;50.248;8.252;2022-08-21T00:29:11;8.40;;;4.28;;
37407;SDS011;24866;50.248;8.252;2022-08-21T00:31:41;8.18;;;3.90;;
37407;SDS011;24866;50.248;8.252;2022-08-21T00:34:13;6.32;;;3.75;;
37407;SDS011;24866;50.248;8.252;2022-08-21T00:36:43;8.63;;;4.22;;
37407;SDS011;24866;50.248;8.252;2022-08-21T00:39:13;9.52;;;4.15;;
37407;SDS011;24866;50.248;8.252;2022-08-21T00:41:43;9.75;;;3.83;;
37407;SDS011;24866;50.248;8.252;2022-08-21T00:44:13;8.55;;;4.40;;
37407;SDS011;24866;50.248;8.252;2022-08-21T00:46:44;9.05;;;4.15;;
37407;SDS011;24866;50.248;8.252;2022-08-21T00:49:15;7.85;;;3.90;;
37407;SDS011;24866;50.248;8.252;2022-08-21T00:51:47;7.63;;;4.15;;
37407;SDS011;24866;50.248;8.252;2022-08-21T00:54:19;8.82;;;4.30;;
37407;SDS011;24866;50.248;8.252;2022-08-21T00:56:53;7.22;;;3.60;;
37407;SDS011;24866;50.248;8.252;2022-08-21T00:59:26;8.70;;;4.20;;
37407;SDS011;24866;50.248;8.252;2022-08-21T01:02:00;8.80;;;3.83;;
37407;SDS011;24866;50.248;8.252;2022-08-21T01:04:31;7.13;;;4.03;;
37407;SDS011;24866;50.248;8.252;2022-08-21T01:07:02;6.50;;;3.38;;
37407;SDS011;24866;50.248;8.252;2022-08-21T01:09:32;8.02;;;4.15;;
37407;SDS011;24866;50.248;8.252;2022-08-21T01:12:02;6.80;;;4.03;;
37407;SDS011;24866;50.248;8.252;2022-08-21T01:14:33;8.98;;;4.15;;
37407;SDS011;24866;50.248;8.252;2022-08-21T01:17:03;5.93;;;3.65;;
37407;SDS011;24866;50.248;8.252;2022-08-21T01:19:35;5.60;;;2.92;;
37407;SDS011;24866;50.248;8.252;2022-08-21T01:22:07;7.95;;;3.53;;
37407;SDS011;24866;50.248;8.252;2022-08-21T01:24:37;7.55;;;3.35;;
37407;SDS011;24866;50.248;8.252;2022-08-21T01:27:07;7.57;;;3.38;;
37407;SDS011;24866;50.248;8.252;2022-08-21T01:29:38;7.20;;;2.80;;
37407;SDS011;24866;50.248;8.252;2022-08-21T01:32:13;8.93;;;4.15;;
37407;SDS011;24866;50.248;8.252;2022-08-21T01:34:46;6.70;;;3.67;;
37407;SDS011;24866;50.248;8.252;2022-08-21T01:37:20;7.13;;;3.78;;
37407;SDS011;24866;50.248;8.252;2022-08-21T01:39:50;6.18;;;4.05;;
37407;SDS011;24866;50.248;8.252;2022-08-21T01:42:21;7.38;;;4.10;;
37407;SDS011;24866;50.248;8.252;2022-08-21T01:44:51;10.43;;;4.20;;
37407;SDS011;24866;50.248;8.252;2022-08-21T01:47:21;12.80;;;4.00;;
37407;SDS011;24866;50.248;8.252;2022-08-21T01:49:51;6.53;;;3.42;;
37407;SDS011;24866;50.248;8.252;2022-08-21T01:52:23;7.82;;;3.67;;
37407;SDS011;24866;50.248;8.252;2022-08-21T01:54:53;9.25;;;4.10;;
37407;SDS011;24866;50.248;8.252;2022-08-21T01:57:23;6.32;;;3.60;;
37407;SDS011;24866;50.248;8.252;2022-08-21T01:59:53;8.50;;;4.10;;
37407;SDS011;24866;50.248;8.252;2022-08-21T02:02:23;6.53;;;4.05;;
37407;SDS011;24866;50.248;8.252;2022-08-21T02:04:53;6.18;;;3.80;;
37407;SDS011;24866;50.248;8.252;2022-08-21T02:07:25;7.43;;;4.22;;
37407;SDS011;24866;50.248;8.252;2022-08-21T02:09:55;5.40;;;3.38;;
37407;SDS011;24866;50.248;8.252;2022-08-21T02:12:25;7.75;;;4.10;;
37407;SDS011;24866;50.248;8.252;2022-08-21T02:14:55;6.20;;;3.80;;
37407;SDS011;24866;50.248;8.252;2022-08-21T02:17:25;6.40;;;3.88;;
37407;SDS011;24866;50.248;8.252;2022-08-21T02:19:54;6.63;;;3.45;;
37407;SDS011;24866;50.248;8.252;2022-08-21T02:22:26;5.97;;;3.53;;
37407;SDS011;24866;50.248;8.252;2022-08-21T02:24:56;7.07;;;2.95;;
37407;SDS011;24866;50.248;8.252;2022-08-21T02:27:25;7.03;;;3.85;;
37407;SDS011;24866;50.248;8.252;2022-08-21T02:29:56;6.85;;;3.55;;
37407;SDS011;24866;50.248;8.252;2022-08-21T02:32:26;6.47;;;3.70;;
37407;SDS011;24866;50.248;8.252;2022-08-21T02:34:56;8.80;;;3.85;;
37407;SDS011;24866;50.248;8.252;2022-08-21T02:37:27;6.38;;;4.00;;
37407;SDS011;24866;50.248;8.252;2022-08-21T02:39:58;7.65;;;4.28;;
37407;SDS011;24866;50.248;8.252;2022-08-21T02:42:29;7.20;;;3.50;;
37407;SDS011;24866;50.248;8.252;2022-08-21T02:44:58;7.43;;;4.05;;
37407;SDS011;24866;50.248;8.252;2022-08-21T02:47:28;7.20;;;3.40;;
37407;SDS011;24866;50.248;8.252;2022-08-21T02:49:58;8.60;;;3.92;;
37407;SDS011;24866;50.248;8.252;2022-08-21T02:52:30;5.95;;;3.78;;
37407;SDS011;24866;50.248;8.252;2022-08-21T02:55:00;6.95;;;3.85;;
37407;SDS011;24866;50.248;8.252;2022-08-21T02:57:30;6.18;;;3.25;;
37407;SDS011;24866;50.248;8.252;2022-08-21T03:00:01;7.50;;;4.05;;
37407;SDS011;24866;50.248;8.252;2022-08-21T03:02:31;6.57;;;3.58;;
37407;SDS011;24866;50.248;8.252;2022-08-21T03:05:03;7.93;;;3.95;;
37407;SDS011;24866;50.248;8.252;2022-08-21T03:07:35;5.40;;;3.33;;
37407;SDS011;24866;50.248;8.252;2022-08-21T03:10:05;7.07;;;4.00;;
37407;SDS011;24866;50.248;8.252;2022-08-21T03:12:36;6.57;;;3.83;;
37407;SDS011;24866;50.248;8.252;2022-08-21T03:15:07;7.88;;;4.75;;
37407;SDS011;24866;50.248;8.252;2022-08-21T03:17:39;5.72;;;3.72;;
37407;SDS011;24866;50.248;8.252;2022-08-21T03:20:09;9.50;;;4.28;;
37407;SDS011;24866;50.248;8.252;2022-08-21T03:22:41;8.68;;;4.43;;
37407;SDS011;24866;50.248;8.252;2022-08-21T03:25:11;8.60;;;4.00;;
37407;SDS011;24866;50.248;8.252;2022-08-21T03:27:41;9.30;;;4.43;;
37407;SDS011;24866;50.248;8.252;2022-08-21T03:30:11;8.32;;;4.32;;
37407;SDS011;24866;50.248;8.252;2022-08-21T03:32:42;6.75;;;3.20;;
37407;SDS011;24866;50.248;8.252;2022-08-21T03:35:11;7.22;;;3.90;;
37407;SDS011;24866;50.248;8.252;2022-08-21T03:37:43;6.80;;;4.68;;
37407;SDS011;24866;50.248;8.252;2022-08-21T03:40:14;7.50;;;4.13;;
37407;SDS011;24866;50.248;8.252;2022-08-21T03:42:46;8.73;;;4.07;;
37407;SDS011;24866;50.248;8.252;2022-08-21T03:45:16;6.95;;;4.28;;
37407;SDS011;24866;50.248;8.252;2022-08-21T03:47:51;6.65;;;4.40;;
37407;SDS011;24866;50.248;8.252;2022-08-21T03:50:26;5.85;;;3.88;;
37407;SDS011;24866;50.248;8.252;2022-08-21T03:52:59;7.60;;;3.55;;
37407;SDS011;24866;50.248;8.252;2022-08-21T03:55:29;11.48;;;4.07;;
37407;SDS011;24866;50.248;8.252;2022-08-21T03:57:59;10.73;;;4.25;;
37407;SDS011;24866;50.248;8.252;2022-08-21T04:00:29;5.65;;;4.15;;
37407;SDS011;24866;50.248;8.252;2022-08-21T04:02:59;6.40;;;3.78;;
37407;SDS011;24866;50.248;8.252;2022-08-21T04:05:29;5.93;;;3.80;;
37407;SDS011;24866;50.248;8.252;2022-08-21T04:08:02;5.90;;;3.35;;
37407;SDS011;24866;50.248;8.252;2022-08-21T04:10:35;9.50;;;4.40;;
37407;SDS011;24866;50.248;8.252;2022-08-21T04:13:06;5.75;;;3.45;;
37407;SDS011;24866;50.248;8.252;2022-08-21T04:15:37;7.68;;;3.97;;
37407;SDS011;24866;50.248;8.252;2022-08-21T04:18:07;6.60;;;3.72;;
37407;SDS011;24866;50.248;8.252;2022-08-21T04:20:39;6.97;;;4.18;;
37407;SDS011;24866;50.248;8.252;2022-08-21T04:23:11;8.32;;;3.72;;
37407;SDS011;24866;50.248;8.252;2022-08-21T04:25:41;5.30;;;3.47;;
37407;SDS011;24866;50.248;8.252;2022-08-21T04:28:11;9.75;;;4.30;;
37407;SDS011;24866;50.248;8.252;2022-08-21T04:30:41;7.78;;;3.50;;
37407;SDS011;24866;50.248;8.252;2022-08-21T04:33:11;7.93;;;3.80;;
37407;SDS011;24866;50.248;8.252;2022-08-21T04:35:41;5.45;;;3.08;;
37407;SDS011;24866;50.248;8.252;2022-08-21T04:38:12;5.30;;;3.22;;
37407;SDS011;24866;50.248;8.252;2022-08-21T04:40:42;5.78;;;3.20;;
37407;SDS011;24866;50.248;8.252;2022-08-21T04:43:12;7.10;;;3.78;;
37407;SDS011;24866;50.248;8.252;2022-08-21T04:45:44;7.63;;;3.92;;
37407;SDS011;24866;50.248;8.252;2022-08-21T04:48:17;6.65;;;3.70;;
37407;SDS011;24866;50.248;8.252;2022-08-21T04:50:53;5.40;;;3.65;;
37407;SDS011;24866;50.248;8.252;2022-08-21T04:53:27;5.80;;;3.17;;
37407;SDS011;24866;50.248;8.252;2022-08-21T04:56:02;7.72;;;3.92;;
37407;SDS011;24866;50.248;8.252;2022-08-21T04:58:35;5.30;;;3.28;;
37407;SDS011;24866;50.248;8.252;2022-08-21T05:01:07;5.20;;;3.13;;
37407;SDS011;24866;50.248;8.252;2022-08-21T05:03:40;9.48;;;4.30;;
37407;SDS011;24866;50.248;8.252;2022-08-21T05:06:11;7.65;;;3.60;;
37407;SDS011;24866;50.248;8.252;2022-08-21T05:08:45;8.07;;;3.65;;
37407;SDS011;24866;50.248;8.252;2022-08-21T05:11:17;6.05;;;4.13;;
37407;SDS011;24866;50.248;8.252;2022-08-21T05:13:48;7.45;;;3.90;;
37407;SDS011;24866;50.248;8.252;2022-08-21T05:16:18;7.28;;;3.92;;
37407;SDS011;24866;50.248;8.252;2022-08-21T05:18:48;7.90;;;4.00;;
37407;SDS011;24866;50.248;8.252;2022-08-21T05:21:18;7.53;;;4.07;;
37407;SDS011;24866;50.248;8.252;2022-08-21T05:23:50;9.20;;;4.32;;
37407;SDS011;24866;50.248;8.252;2022-08-21T05:26:20;6.68;;;3.67;;
37407;SDS011;24866;50.248;8.252;2022-08-21T05:28:50;7.93;;;4.30;;
37407;SDS011;24866;50.248;8.252;2022-08-21T05:31:20;9.52;;;4.43;;
37407;SDS011;24866;50.248;8.252;2022-08-21T05:33:50;9.13;;;4.07;;
37407;SDS011;24866;50.248;8.252;2022-08-21T05:36:20;7.78;;;4.30;;
37407;SDS011;24866;50.248;8.252;2022-08-21T05:38:51;9.98;;;4.28;;
37407;SDS011;24866;50.248;8.252;2022-08-21T05:41:21;8.10;;;4.57;;
37407;SDS011;24866;50.248;8.252;2022-08-21T05:43:51;7.50;;;4.40;;
37407;SDS011;24866;50.248;8.252;2022-08-21T05:46:21;9.48;;;4.45;;
37407;SDS011;24866;50.248;8.252;2022-08-21T05:48:51;8.25;;;4.53;;
37407;SDS011;24866;50.248;8.252;2022-08-21T05:51:21;8.45;;;4.68;;
37407;SDS011;24866;50.248;8.252;2022-08-21T05:53:52;7.80;;;4.30;;
37407;SDS011;24866;50.248;8.252;2022-08-21T05:56:22;9.45;;;4.65;;
37407;SDS011;24866;50.248;8.252;2022-08-21T05:58:52;7.78;;;4.22;;
37407;SDS011;24866;50.248;8.252;2022-08-21T06:01:22;8.55;;;4.63;;
37407;SDS011;24866;50.248;8.252;2022-08-21T06:03:52;9.10;;;5.15;;
37407;SDS011;24866;50.248;8.252;2022-08-21T06:06:22;10.27;;;4.55;;
37407;SDS011;24866;50.248;8.252;2022-08-21T06:08:53;10.52;;;4.97;;
37407;SDS011;24866;50.248;8.252;2022-08-21T06:11:23;8.98;;;5.28;;
37407;SDS011;24866;50.248;8.252;2022-08-21T06:13:53;8.25;;;4.75;;
37407;SDS011;24866;50.248;8.252;2022-08-21T06:16:23;9.60;;;4.93;;
37407;SDS011;24866;50.248;8.252;2022-08-21T06:18:53;8.30;;;4.97;;
37407;SDS011;24866;50.248;8.252;2022-08-21T06:21:23;9.55;;;5.32;;
37407;SDS011;24866;50.248;8.252;2022-08-21T06:23:54;11.93;;;5.50;;
37407;SDS011;24866;50.248;8.252;2022-08-21T06:26:24;8.88;;;5.05;;
37407;SDS011;24866;50.248;8.252;2022-08-21T06:28:54;6.78;;;4.63;;
37407;SDS011;24866;50.248;8.252;2022-08-21T06:31:25;8.23;;;5.13;;
37407;SDS011;24866;50.248;8.252;2022-08-21T06:33:56;11.23;;;5.88;;
37407;SDS011;24866;50.248;8.252;2022-08-21T06:36:26;9.05;;;5.30;;
37407;SDS011;24866;50.248;8.252;2022-08-21T06:38:57;10.15;;;5.13;;
37407;SDS011;24866;50.248;8.252;2022-08-21T06:41:28;7.00;;;4.72;;
37407;SDS011;24866;50.248;8.252;2022-08-21T06:43:58;10.98;;;6.18;;
37407;SDS011;24866;50.248;8.252;2022-08-21T06:46:28;9.48;;;4.95;;
37407;SDS011;24866;50.248;8.252;2022-08-21T06:48:59;11.15;;;5.72;;
37407;SDS011;24866;50.248;8.252;2022-08-21T06:51:29;10.30;;;5.35;;
37407;SDS011;24866;50.248;8.252;2022-08-21T06:54:00;11.15;;;5.97;;
37407;SDS011;24866;50.248;8.252;2022-08-21T06:56:30;11.43;;;5.30;;
37407;SDS011;24866;50.248;8.252;2022-08-21T06:59:01;12.80;;;5.53;;
37407;SDS011;24866;50.248;8.252;2022-08-21T07:01:31;12.90;;;5.40;;
37407;SDS011;24866;50.248;8.252;2022-08-21T07:04:01;11.77;;;5.80;;
37407;SDS011;24866;50.248;8.252;2022-08-21T07:06:31;12.48;;;5.88;;
37407;SDS011;24866;50.248;8.252;2022-08-21T07:09:03;11.23;;;5.35;;
37407;SDS011;24866;50.248;8.252;2022-08-21T07:11:33;14.02;;;5.65;;
37407;SDS011;24866;50.248;8.252;2022-08-21T07:14:04;12.90;;;4.30;;
37407;SDS011;24866;50.248;8.252;2022-08-21T07:16:35;10.50;;;5.03;;
37407;SDS011;24866;50.248;8.252;2022-08-21T07:19:05;11.07;;;5.35;;
37407;SDS011;24866;50.248;8.252;2022-08-21T07:21:35;11.65;;;5.68;;
37407;SDS011;24866;50.248;8.252;2022-08-21T07:24:06;10.75;;;5.05;;
37407;SDS011;24866;50.248;8.252;2022-08-21T07:26:36;16.42;;;5.68;;
37407;SDS011;24866;50.248;8.252;2022-08-21T07:29:06;8.70;;;5.55;;
37407;SDS011;24866;50.248;8.252;2022-08-21T07:31:36;18.23;;;6.38;;
37407;SDS011;24866;50.248;8.252;2022-08-21T07:34:06;13.38;;;5.45;;
37407;SDS011;24866;50.248;8.252;2022-08-21T07:36:37;12.98;;;6.28;;
37407;SDS011;24866;50.248;8.252;2022-08-21T07:39:08;13.50;;;5.80;;
37407;SDS011;24866;50.248;8.252;2022-08-21T07:41:38;8.20;;;4.85;;
37407;SDS011;24866;50.248;8.252;2022-08-21T07:44:08;11.05;;;5.30;;
37407;SDS011;24866;50.248;8.252;2022-08-21T07:46:38;11.63;;;4.63;;
37407;SDS011;24866;50.248;8.252;2022-08-21T07:49:08;9.68;;;5.07;;
37407;SDS011;24866;50.248;8.252;2022-08-21T07:51:38;13.50;;;5.95;;
37407;SDS011;24866;50.248;8.252;2022-08-21T07:54:09;11.98;;;5.85;;
37407;SDS011;24866;50.248;8.252;2022-08-21T07:56:39;18.38;;;6.43;;
37407;SDS011;24866;50.248;8.252;2022-08-21T07:59:09;15.55;;;5.32;;
37407;SDS011;24866;50.248;8.252;2022-08-21T08:01:39;9.57;;;5.40;;
37407;SDS011;24866;50.248;8.252;2022-08-21T08:04:09;10.45;;;6.15;;
37407;SDS011;24866;50.248;8.252;2022-08-21T08:06:39;14.65;;;5.68;;
37407;SDS011;24866;50.248;8.252;2022-08-21T08:09:10;11.80;;;6.40;;
37407;SDS011;24866;50.248;8.252;2022-08-21T08:11:41;17.13;;;6.82;;
37407;SDS011;24866;50.248;8.252;2022-08-21T08:14:12;10.45;;;5.35;;
37407;SDS011;24866;50.248;8.252;2022-08-21T08:16:43;11.57;;;5.35;;
37407;SDS011;24866;50.248;8.252;2022-08-21T08:19:13;15.30;;;6.70;;
37407;SDS011;24866;50.248;8.252;2022-08-21T08:21:43;12.38;;;6.50;;
37407;SDS011;24866;50.248;8.252;2022-08-21T08:24:14;16.08;;;6.55;;
37407;SDS011;24866;50.248;8.252;2022-08-21T08:26:44;13.82;;;6.18;;
37407;SDS011;24866;50.248;8.252;2022-08-21T08:29:14;17.40;;;6.72;;
37407;SDS011;24866;50.248;8.252;2022-08-21T08:31:44;16.73;;;7.07;;
37407;SDS011;24866;50.248;8.252;2022-08-21T08:34:15;15.25;;;6.32;;
37407;SDS011;24866;50.248;8.252;2022-08-21T08:36:45;10.40;;;5.30;;
37407;SDS011;24866;50.248;8.252;2022-08-21T08:39:16;12.63;;;5.97;;
37407;SDS011;24866;50.248;8.252;2022-08-21T08:41:46;14.18;;;4.93;;
37407;SDS011;24866;50.248;8.252;2022-08-21T08:44:19;12.77;;;5.93;;
37407;SDS011;24866;50.248;8.252;2022-08-21T08:46:49;15.27;;;5.07;;
37407;SDS011;24866;50.248;8.252;2022-08-21T08:49:22;11.00;;;5.25;;
37407;SDS011;24866;50.248;8.252;2022-08-21T08:51:57;16.92;;;6.32;;
37407;SDS011;24866;50.248;8.252;2022-08-21T08:54:33;13.07;;;5.78;;
37407;SDS011;24866;50.248;8.252;2022-08-21T08:57:09;12.65;;;5.00;;
37407;SDS011;24866;50.248;8.252;2022-08-21T08:59:44;12.68;;;5.80;;
37407;SDS011;24866;50.248;8.252;2022-08-21T09:02:17;10.13;;;5.53;;
37407;SDS011;24866;50.248;8.252;2022-08-21T09:04:49;13.93;;;4.95;;
37407;SDS011;24866;50.248;8.252;2022-08-21T09:07:23;13.57;;;4.27;;
37407;SDS011;24866;50.248;8.252;2022-08-21T09:10:05;10.95;;;2.97;;
37407;SDS011;24866;50.248;8.252;2022-08-21T09:12:47;8.95;;;2.75;;
37407;SDS011;24866;50.248;8.252;2022-08-21T09:15:24;9.13;;;4.13;;
37407;SDS011;24866;50.248;8.252;2022-08-21T09:18:05;11.40;;;4.45;;
37407;SDS011;24866;50.248;8.252;2022-08-21T09:20:47;13.10;;;4.57;;
37407;SDS011;24866;50.248;8.252;2022-08-21T09:23:29;10.77;;;3.70;;
37407;SDS011;24866;50.248;8.252;2022-08-21T09:26:14;12.00;;;3.95;;
37407;SDS011;24866;50.248;8.252;2022-08-21T09:28:49;10.57;;;3.72;;
37407;SDS011;24866;50.248;8.252;2022-08-21T09:31:23;5.97;;;2.67;;
37407;SDS011;24866;50.248;8.252;2022-08-21T09:33:58;12.85;;;3.85;;
37407;SDS011;24866;50.248;8.252;2022-08-21T09:36:31;6.85;;;3.13;;
37407;SDS011;24866;50.248;8.252;2022-08-21T09:39:05;10.13;;;4.30;;
37407;SDS011;24866;50.248;8.252;2022-08-21T09:41:38;8.27;;;3.85;;
37407;SDS011;24866;50.248;8.252;2022-08-21T09:44:09;10.93;;;3.83;;
37407;SDS011;24866;50.248;8.252;2022-08-21T09:46:49;9.77;;;3.78;;
37407;SDS011;24866;50.248;8.252;2022-08-21T09:49:26;7.90;;;3.50;;
37407;SDS011;24866;50.248;8.252;2022-08-21T09:51:58;7.20;;;3.08;;
37407;SDS011;24866;50.248;8.252;2022-08-21T09:54:30;11.20;;;3.03;;
37407;SDS011;24866;50.248;8.252;2022-08-21T10:00:07;9.52;;;3.70;;
37407;SDS011;24866;50.248;8.252;2022-08-21T10:02:39;10.07;;;3.40;;
37407;SDS011;24866;50.248;8.252;2022-08-21T10:05:15;10.88;;;2.92;;
37407;SDS011;24866;50.248;8.252;2022-08-21T10:07:47;10.60;;;3.28;;
37407;SDS011;24866;50.248;8.252;2022-08-21T10:10:18;5.72;;;3.13;;
37407;SDS011;24866;50.248;8.252;2022-08-21T10:12:54;8.55;;;3.35;;
37407;SDS011;24866;50.248;8.252;2022-08-21T10:15:33;10.38;;;3.45;;
37407;SDS011;24866;50.248;8.252;2022-08-21T10:18:12;8.73;;;3.25;;
37407;SDS011;24866;50.248;8.252;2022-08-21T10:20:52;10.32;;;3.47;;
37407;SDS011;24866;50.248;8.252;2022-08-21T10:23:37;7.50;;;2.90;;
37407;SDS011;24866;50.248;8.252;2022-08-21T10:26:17;10.80;;;3.17;;
37407;SDS011;24866;50.248;8.252;2022-08-21T10:28:57;9.07;;;3.33;;
37407;SDS011;24866;50.248;8.252;2022-08-21T10:31:34;6.78;;;2.80;;
37407;SDS011;24866;50.248;8.252;2022-08-21T10:34:14;8.18;;;3.15;;
37407;SDS011;24866;50.248;8.252;2022-08-21T10:39:31;8.57;;;3.20;;
37407;SDS011;24866;50.248;8.252;2022-08-21T10:42:11;6.60;;;2.30;;
37407;SDS011;24866;50.248;8.252;2022-08-21T10:44:57;5.88;;;2.65;;
37407;SDS011;24866;50.248;8.252;2022-08-21T10:47:41;10.50;;;2.58;;
37407;SDS011;24866;50.248;8.252;2022-08-21T10:50:18;5.75;;;2.60;;
37407;SDS011;24866;50.248;8.252;2022-08-21T10:53:05;8.77;;;2.63;;
37407;SDS011;24866;50.248;8.252;2022-08-21T10:55:46;7.68;;;2.15;;
37407;SDS011;24866;50.248;8.252;2022-08-21T10:58:23;6.10;;;2.25;;
37407;SDS011;24866;50.248;8.252;2022-08-21T11:01:04;6.40;;;2.20;;
37407;SDS011;24866;50.248;8.252;2022-08-21T11:03:41;4.90;;;1.90;;
37407;SDS011;24866;50.248;8.252;2022-08-21T11:08:48;6.03;;;2.30;;
37407;SDS011;24866;50.248;8.252;2022-08-21T11:11:22;7.60;;;2.30;;
37407;SDS011;24866;50.248;8.252;2022-08-21T11:13:57;5.90;;;2.28;;
37407;SDS011;24866;50.248;8.252;2022-08-21T11:16:33;7.55;;;2.35;;
37407;SDS011;24866;50.248;8.252;2022-08-21T11:19:08;8.95;;;2.78;;
37407;SDS011;24866;50.248;8.252;2022-08-21T11:21:43;7.57;;;3.03;;
37407;SDS011;24866;50.248;8.252;2022-08-21T11:24:22;7.55;;;2.70;;
37407;SDS011;24866;50.248;8.252;2022-08-21T11:26:59;7.18;;;2.38;;
37407;SDS011;24866;50.248;8.252;2022-08-21T11:29:35;6.95;;;2.53;;
37407;SDS011;24866;50.248;8.252;2022-08-21T11:32:16;4.95;;;2.10;;
37407;SDS011;24866;50.248;8.252;2022-08-21T11:35:08;5.00;;;1.77;;
37407;SDS011;24866;50.248;8.252;2022-08-21T11:37:45;8.48;;;1.55;;
37407;SDS011;24866;50.248;8.252;2022-08-21T11:40:26;6.82;;;2.05;;
37407;SDS011;24866;50.248;8.252;2022-08-21T11:43:12;4.30;;;2.05;;
37407;SDS011;24866;50.248;8.252;2022-08-21T11:45:50;7.07;;;1.95;;
37407;SDS011;24866;50.248;8.252;2022-08-21T11:51:02;7.68;;;1.98;;
37407;SDS011;24866;50.248;8.252;2022-08-21T11:53:38;7.30;;;2.45;;
37407;SDS011;24866;50.248;8.252;2022-08-21T11:56:19;5.57;;;1.90;;
37407;SDS011;24866;50.248;8.252;2022-08-21T11:58:54;6.68;;;2.50;;
37407;SDS011;24866;50.248;8.252;2022-08-21T12:01:30;6.32;;;2.15;;
37407;SDS011;24866;50.248;8.252;2022-08-21T12:04:06;5.03;;;1.38;;
37407;SDS011;24866;50.248;8.252;2022-08-21T12:06:40;5.20;;;1.42;;
37407;SDS011;24866;50.248;8.252;2022-08-21T12:09:27;4.60;;;1.63;;
37407;SDS011;24866;50.248;8.252;2022-08-21T12:12:01;6.18;;;2.03;;
37407;SDS011;24866;50.248;8.252;2022-08-21T12:14:38;4.72;;;1.95;;
37407;SDS011;24866;50.248;8.252;2022-08-21T12:17:16;3.80;;;1.48;;
37407;SDS011;24866;50.248;8.252;2022-08-21T12:19:58;6.93;;;1.90;;
37407;SDS011;24866;50.248;8.252;2022-08-21T12:22:35;4.90;;;1.70;;
37407;SDS011;24866;50.248;8.252;2022-08-21T12:25:07;7.57;;;2.17;;
37407;SDS011;24866;50.248;8.252;2022-08-21T12:27:44;4.78;;;1.90;;
37407;SDS011;24866;50.248;8.252;2022-08-21T12:30:20;3.83;;;1.95;;
37407;SDS011;24866;50.248;8.252;2022-08-21T12:32:54;4.18;;;1.60;;
37407;SDS011;24866;50.248;8.252;2022-08-21T12:35:38;4.55;;;1.40;;
37407;SDS011;24866;50.248;8.252;2022-08-21T12:38:13;6.05;;;1.77;;
37407;SDS011;24866;50.248;8.252;2022-08-21T12:40:47;4.88;;;1.90;;
37407;SDS011;24866;50.248;8.252;2022-08-21T12:43:23;6.60;;;2.15;;
37407;SDS011;24866;50.248;8.252;2022-08-21T12:45:56;5.97;;;2.00;;
37407;SDS011;24866;50.248;8.252;2022-08-21T12:48:29;5.50;;;2.03;;
37407;SDS011;24866;50.248;8.252;2022-08-21T12:51:09;4.10;;;1.50;;
37407;SDS011;24866;50.248;8.252;2022-08-21T12:53:44;5.03;;;2.13;;
37407;SDS011;24866;50.248;8.252;2022-08-21T12:56:17;7.20;;;2.15;;
37407;SDS011;24866;50.248;8.252;2022-08-21T12:58:49;3.47;;;1.85;;
37407;SDS011;24866;50.248;8.252;2022-08-21T13:01:23;3.60;;;1.48;;
37407;SDS011;24866;50.248;8.252;2022-08-21T13:03:58;4.10;;;1.90;;
37407;SDS011;24866;50.248;8.252;2022-08-21T13:06:36;3.53;;;1.58;;
37407;SDS011;24866;50.248;8.252;2022-08-21T13:09:09;4.10;;;1.50;;
37407;SDS011;24866;50.248;8.252;2022-08-21T13:11:42;5.85;;;2.00;;
37407;SDS011;24866;50.248;8.252;2022-08-21T13:14:17;4.53;;;1.50;;
37407;SDS011;24866;50.248;8.252;2022-08-21T13:16:53;4.50;;;1.70;;
37407;SDS011;24866;50.248;8.252;2022-08-21T13:19:24;4.07;;;1.50;;
37407;SDS011;24866;50.248;8.252;2022-08-21T13:21:57;6.30;;;2.65;;
37407;SDS011;24866;50.248;8.252;2022-08-21T13:24:28;4.13;;;1.73;;
37407;SDS011;24866;50.248;8.252;2022-08-21T13:27:01;4.25;;;1.67;;
37407;SDS011;24866;50.248;8.252;2022-08-21T13:29:33;5.28;;;1.42;;
37407;SDS011;24866;50.248;8.252;2022-08-21T13:32:04;4.82;;;1.40;;
37407;SDS011;24866;50.248;8.252;2022-08-21T13:34:36;2.10;;;1.30;;
37407;SDS011;24866;50.248;8.252;2022-08-21T13:37:08;5.35;;;1.95;;
37407;SDS011;24866;50.248;8.252;2022-08-21T13:39:40;9.90;;;1.92;;
37407;SDS011;24866;50.248;8.252;2022-08-21T13:42:17;3.58;;;1.52;;
37407;SDS011;24866;50.248;8.252;2022-08-21T13:44:47;3.67;;;1.50;;
37407;SDS011;24866;50.248;8.252;2022-08-21T13:47:20;4.38;;;1.67;;
37407;SDS011;24866;50.248;8.252;2022-08-21T13:49:51;4.43;;;1.40;;
37407;SDS011;24866;50.248;8.252;2022-08-21T13:52:24;4.05;;;1.50;;
37407;SDS011;24866;50.248;8.252;2022-08-21T13:54:56;3.65;;;1.67;;
37407;SDS011;24866;50.248;8.252;2022-08-21T13:57:29;4.22;;;1.77;;
37407;SDS011;24866;50.248;8.252;2022-08-21T14:00:10;3.97;;;1.70;;
37407;SDS011;24866;50.248;8.252;2022-08-21T14:05:16;4.05;;;1.67;;
37407;SDS011;24866;50.248;8.252;2022-08-21T14:07:56;4.30;;;1.50;;
37407;SDS011;24866;50.248;8.252;2022-08-21T14:10:31;6.00;;;1.92;;
37407;SDS011;24866;50.248;8.252;2022-08-21T14:13:05;4.63;;;1.58;;
37407;SDS011;24866;50.248;8.252;2022-08-21T14:15:36;4.10;;;1.40;;
37407;SDS011;24866;50.248;8.252;2022-08-21T14:18:07;4.07;;;1.50;;
37407;SDS011;24866;50.248;8.252;2022-08-21T14:20:42;3.72;;;1.33;;
37407;SDS011;24866;50.248;8.252;2022-08-21T14:23:24;5.45;;;1.70;;
37407;SDS011;24866;50.248;8.252;2022-08-21T14:25:57;4.10;;;1.80;;
37407;SDS011;24866;50.248;8.252;2022-08-21T14:28:29;4.35;;;1.38;;
37407;SDS011;24866;50.248;8.252;2022-08-21T14:31:10;6.40;;;1.30;;
37407;SDS011;24866;50.248;8.252;2022-08-21T14:33:42;3.72;;;1.40;;
37407;SDS011;24866;50.248;8.252;2022-08-21T14:36:12;4.43;;;1.17;;
37407;SDS011;24866;50.248;8.252;2022-08-21T14:38:46;4.05;;;1.23;;
37407;SDS011;24866;50.248;8.252;2022-08-21T14:41:16;2.53;;;1.02;;
37407;SDS011;24866;50.248;8.252;2022-08-21T14:43:49;12.13;;;2.20;;
37407;SDS011;24866;50.248;8.252;2022-08-21T14:46:23;2.40;;;1.23;;
37407;SDS011;24866;50.248;8.252;2022-08-21T14:48:54;5.93;;;1.98;;
37407;SDS011;24866;50.248;8.252;2022-08-21T14:51:25;4.85;;;1.60;;
37407;SDS011;24866;50.248;8.252;2022-08-21T14:53:56;3.72;;;1.08;;
37407;SDS011;24866;50.248;8.252;2022-08-21T14:56:26;4.37;;;1.60;;
37407;SDS011;24866;50.248;8.252;2022-08-21T14:58:58;5.60;;;1.23;;
37407;SDS011;24866;50.248;8.252;2022-08-21T15:01:35;4.35;;;1.25;;
37407;SDS011;24866;50.248;8.252;2022-08-21T15:04:05;4.53;;;1.53;;
37407;SDS011;24866;50.248;8.252;2022-08-21T15:06:35;3.53;;;1.20;;
37407;SDS011;24866;50.248;8.252;2022-08-21T15:09:07;3.03;;;1.35;;
37407;SDS011;24866;50.248;8.252;2022-08-21T15:11:37;3.67;;;1.30;;
37407;SDS011;24866;50.248;8.252;2022-08-21T15:14:08;4.47;;;1.42;;
37407;SDS011;24866;50.248;8.252;2022-08-21T15:16:42;4.75;;;1.67;;
37407;SDS011;24866;50.248;8.252;2022-08-21T15:19:12;5.03;;;1.15;;
37407;SDS011;24866;50.248;8.252;2022-08-21T15:21:42;5.75;;;1.33;;
37407;SDS011;24866;50.248;8.252;2022-08-21T15:24:13;4.10;;;1.23;;
37407;SDS011;24866;50.248;8.252;2022-08-21T15:26:43;3.83;;;1.40;;
37407;SDS011;24866;50.248;8.252;2022-08-21T15:29:15;3.60;;;1.10;;
37407;SDS011;24866;50.248;8.252;2022-08-21T15:31:49;2.63;;;1.13;;